sensor_id;sensor_type;location;lat;lon;timestamp;P1;durP1;ratioP1;P2;durP2;ratioP2
39486;SDS011;25173;50.430;18.926;2023-12-20T00:01:33;15.98;;;9.60;;
39486;SDS011;25173;50.430;18.926;2023-12-20T00:04:33;14.82;;;9.52;;
39486;SDS011;25173;50.430;18.926;2023-12-20T00:07:34;16.52;;;10.60;;
39486;SDS011;25173;50.430;18.926;2023-12-20T00:10:35;14.98;;;9.70;;
39486;SDS011;25173;50.430;18.926;2023-12-20T00:13:36;17.27;;;10.52;;
39486;SDS011;25173;50.430;18.926;2023-12-20T00:16:36;19.50;;;11.07;;
39486;SDS011;25173;50.430;18.926;2023-12-20T00:19:37;16.35;;;11.23;;
39486;SDS011;25173;50.430;18.926;2023-12-20T00:22:50;15.15;;;9.43;;
39486;SDS011;25173;50.430;18.926;2023-12-20T00:25:51;16.77;;;10.10;;
39486;SDS011;25173;50.430;18.926;2023-12-20T00:28:51;14.93;;;10.48;;
39486;SDS011;25173;50.430;18.926;2023-12-20T00:31:52;14.45;;;9.63;;
39486;SDS011;25173;50.430;18.926;2023-12-20T00:34:57;16.70;;;10.68;;
39486;SDS011;25173;50.430;18.926;2023-12-20T00:37:58;15.23;;;9.23;;
39486;SDS011;25173;50.430;18.926;2023-12-20T00:40:58;32.78;;;17.13;;
39486;SDS011;25173;50.430;18.926;2023-12-20T00:43:59;35.97;;;24.85;;
39486;SDS011;25173;50.430;18.926;2023-12-20T00:47:01;28.73;;;16.15;;
39486;SDS011;25173;50.430;18.926;2023-12-20T00:50:01;20.92;;;12.95;;
39486;SDS011;25173;50.430;18.926;2023-12-20T00:53:02;19.52;;;12.57;;
39486;SDS011;25173;50.430;18.926;2023-12-20T00:56:03;17.85;;;11.90;;
39486;SDS011;25173;50.430;18.926;2023-12-20T00:59:04;20.38;;;12.65;;
39486;SDS011;25173;50.430;18.926;2023-12-20T01:02:04;19.45;;;11.80;;
39486;SDS011;25173;50.430;18.926;2023-12-20T01:05:05;35.78;;;20.77;;
39486;SDS011;25173;50.430;18.926;2023-12-20T01:08:07;54.53;;;29.83;;
39486;SDS011;25173;50.430;18.926;2023-12-20T01:11:08;55.90;;;30.13;;
39486;SDS011;25173;50.430;18.926;2023-12-20T01:14:08;24.52;;;14.27;;
39486;SDS011;25173;50.430;18.926;2023-12-20T01:17:09;50.85;;;28.40;;
39486;SDS011;25173;50.430;18.926;2023-12-20T01:20:09;33.10;;;18.85;;
39486;SDS011;25173;50.430;18.926;2023-12-20T01:23:10;16.60;;;11.02;;
39486;SDS011;25173;50.430;18.926;2023-12-20T01:26:11;19.13;;;11.90;;
39486;SDS011;25173;50.430;18.926;2023-12-20T01:29:15;18.40;;;11.27;;
39486;SDS011;25173;50.430;18.926;2023-12-20T01:32:17;18.38;;;11.60;;
39486;SDS011;25173;50.430;18.926;2023-12-20T01:35:17;16.67;;;11.70;;
39486;SDS011;25173;50.430;18.926;2023-12-20T01:38:18;16.70;;;10.27;;
39486;SDS011;25173;50.430;18.926;2023-12-20T01:41:19;15.05;;;10.25;;
39486;SDS011;25173;50.430;18.926;2023-12-20T01:44:20;12.48;;;8.68;;
39486;SDS011;25173;50.430;18.926;2023-12-20T01:47:20;13.23;;;8.95;;
39486;SDS011;25173;50.430;18.926;2023-12-20T01:50:22;12.63;;;8.30;;
39486;SDS011;25173;50.430;18.926;2023-12-20T01:53:23;12.60;;;8.93;;
39486;SDS011;25173;50.430;18.926;2023-12-20T01:56:25;15.43;;;10.48;;
39486;SDS011;25173;50.430;18.926;2023-12-20T01:59:28;15.60;;;10.35;;
39486;SDS011;25173;50.430;18.926;2023-12-20T02:02:29;13.68;;;9.88;;
39486;SDS011;25173;50.430;18.926;2023-12-20T02:05:31;18.13;;;10.45;;
39486;SDS011;25173;50.430;18.926;2023-12-20T02:08:32;16.85;;;10.13;;
39486;SDS011;25173;50.430;18.926;2023-12-20T02:11:33;25.08;;;18.73;;
39486;SDS011;25173;50.430;18.926;2023-12-20T02:14:35;18.13;;;11.25;;
39486;SDS011;25173;50.430;18.926;2023-12-20T02:17:41;18.38;;;12.30;;
39486;SDS011;25173;50.430;18.926;2023-12-20T02:20:41;24.55;;;15.95;;
39486;SDS011;25173;50.430;18.926;2023-12-20T02:23:42;18.77;;;13.32;;
39486;SDS011;25173;50.430;18.926;2023-12-20T02:26:43;20.65;;;11.52;;
39486;SDS011;25173;50.430;18.926;2023-12-20T02:29:43;17.08;;;11.13;;
39486;SDS011;25173;50.430;18.926;2023-12-20T02:32:44;14.75;;;10.52;;
39486;SDS011;25173;50.430;18.926;2023-12-20T02:35:44;18.48;;;11.00;;
39486;SDS011;25173;50.430;18.926;2023-12-20T02:38:45;17.73;;;11.98;;
39486;SDS011;25173;50.430;18.926;2023-12-20T02:41:46;18.23;;;11.70;;
39486;SDS011;25173;50.430;18.926;2023-12-20T02:44:47;16.63;;;10.90;;
39486;SDS011;25173;50.430;18.926;2023-12-20T02:47:47;16.98;;;11.50;;
39486;SDS011;25173;50.430;18.926;2023-12-20T02:50:48;22.90;;;11.27;;
39486;SDS011;25173;50.430;18.926;2023-12-20T02:53:49;16.25;;;11.48;;
39486;SDS011;25173;50.430;18.926;2023-12-20T02:56:49;15.35;;;9.98;;
39486;SDS011;25173;50.430;18.926;2023-12-20T02:59:50;15.02;;;10.73;;
39486;SDS011;25173;50.430;18.926;2023-12-20T03:02:51;13.52;;;9.00;;
39486;SDS011;25173;50.430;18.926;2023-12-20T03:05:52;16.15;;;11.13;;
39486;SDS011;25173;50.430;18.926;2023-12-20T03:08:52;11.13;;;8.68;;
39486;SDS011;25173;50.430;18.926;2023-12-20T03:11:53;45.75;;;26.85;;
39486;SDS011;25173;50.430;18.926;2023-12-20T03:14:57;19.52;;;11.88;;
39486;SDS011;25173;50.430;18.926;2023-12-20T03:17:58;23.83;;;13.93;;
39486;SDS011;25173;50.430;18.926;2023-12-20T03:20:59;20.23;;;13.65;;
39486;SDS011;25173;50.430;18.926;2023-12-20T03:24:00;22.98;;;15.05;;
39486;SDS011;25173;50.430;18.926;2023-12-20T03:27:00;28.67;;;17.80;;
39486;SDS011;25173;50.430;18.926;2023-12-20T03:30:01;34.13;;;21.20;;
39486;SDS011;25173;50.430;18.926;2023-12-20T03:33:02;39.50;;;24.75;;
39486;SDS011;25173;50.430;18.926;2023-12-20T03:36:02;21.20;;;14.32;;
39486;SDS011;25173;50.430;18.926;2023-12-20T03:39:03;19.48;;;13.27;;
39486;SDS011;25173;50.430;18.926;2023-12-20T03:42:03;133.65;;;72.20;;
39486;SDS011;25173;50.430;18.926;2023-12-20T03:45:04;207.98;;;109.40;;
39486;SDS011;25173;50.430;18.926;2023-12-20T03:48:05;232.75;;;122.75;;
39486;SDS011;25173;50.430;18.926;2023-12-20T03:51:06;385.75;;;208.07;;
39486;SDS011;25173;50.430;18.926;2023-12-20T03:54:06;250.63;;;134.07;;
39486;SDS011;25173;50.430;18.926;2023-12-20T03:57:07;185.50;;;108.35;;
39486;SDS011;25173;50.430;18.926;2023-12-20T04:00:08;126.35;;;68.50;;
39486;SDS011;25173;50.430;18.926;2023-12-20T04:03:15;66.75;;;37.13;;
39486;SDS011;25173;50.430;18.926;2023-12-20T04:06:18;38.45;;;23.48;;
39486;SDS011;25173;50.430;18.926;2023-12-20T04:09:19;33.13;;;20.85;;
39486;SDS011;25173;50.430;18.926;2023-12-20T04:12:19;34.50;;;19.33;;
39486;SDS011;25173;50.430;18.926;2023-12-20T04:15:20;73.03;;;35.78;;
39486;SDS011;25173;50.430;18.926;2023-12-20T04:18:21;52.50;;;26.83;;
39486;SDS011;25173;50.430;18.926;2023-12-20T04:21:21;39.92;;;20.25;;
39486;SDS011;25173;50.430;18.926;2023-12-20T04:24:22;31.35;;;17.05;;
39486;SDS011;25173;50.430;18.926;2023-12-20T04:27:22;37.95;;;23.85;;
39486;SDS011;25173;50.430;18.926;2023-12-20T04:30:23;40.45;;;22.30;;
39486;SDS011;25173;50.430;18.926;2023-12-20T04:33:23;26.10;;;15.52;;
39486;SDS011;25173;50.430;18.926;2023-12-20T04:36:24;31.17;;;18.92;;
39486;SDS011;25173;50.430;18.926;2023-12-20T04:39:30;35.00;;;20.40;;
39486;SDS011;25173;50.430;18.926;2023-12-20T04:42:35;27.88;;;16.20;;
39486;SDS011;25173;50.430;18.926;2023-12-20T04:45:35;24.30;;;14.35;;
39486;SDS011;25173;50.430;18.926;2023-12-20T04:48:37;17.65;;;11.45;;
39486;SDS011;25173;50.430;18.926;2023-12-20T04:51:37;27.20;;;15.30;;
39486;SDS011;25173;50.430;18.926;2023-12-20T04:54:38;19.92;;;13.32;;
39486;SDS011;25173;50.430;18.926;2023-12-20T04:57:39;21.38;;;12.98;;
39486;SDS011;25173;50.430;18.926;2023-12-20T05:00:39;20.33;;;13.95;;
39486;SDS011;25173;50.430;18.926;2023-12-20T05:03:40;22.63;;;14.52;;
39486;SDS011;25173;50.430;18.926;2023-12-20T05:06:41;23.63;;;17.67;;
39486;SDS011;25173;50.430;18.926;2023-12-20T05:09:41;18.05;;;13.38;;
39486;SDS011;25173;50.430;18.926;2023-12-20T05:12:42;26.40;;;17.52;;
39486;SDS011;25173;50.430;18.926;2023-12-20T05:15:43;18.45;;;13.63;;
39486;SDS011;25173;50.430;18.926;2023-12-20T05:18:44;20.08;;;14.27;;
39486;SDS011;25173;50.430;18.926;2023-12-20T05:21:45;27.65;;;18.48;;
39486;SDS011;25173;50.430;18.926;2023-12-20T05:24:46;23.73;;;14.52;;
39486;SDS011;25173;50.430;18.926;2023-12-20T05:27:47;25.45;;;14.98;;
39486;SDS011;25173;50.430;18.926;2023-12-20T05:30:48;24.27;;;17.83;;
39486;SDS011;25173;50.430;18.926;2023-12-20T05:33:48;34.72;;;18.67;;
39486;SDS011;25173;50.430;18.926;2023-12-20T05:36:49;30.65;;;17.80;;
39486;SDS011;25173;50.430;18.926;2023-12-20T05:39:50;18.35;;;12.32;;
39486;SDS011;25173;50.430;18.926;2023-12-20T05:42:50;18.05;;;12.73;;
39486;SDS011;25173;50.430;18.926;2023-12-20T05:45:51;17.98;;;12.45;;
39486;SDS011;25173;50.430;18.926;2023-12-20T05:48:51;23.75;;;12.27;;
39486;SDS011;25173;50.430;18.926;2023-12-20T05:51:52;29.52;;;14.43;;
39486;SDS011;25173;50.430;18.926;2023-12-20T05:54:52;21.90;;;13.50;;
39486;SDS011;25173;50.430;18.926;2023-12-20T05:57:53;34.70;;;17.70;;
39486;SDS011;25173;50.430;18.926;2023-12-20T06:00:54;31.15;;;15.38;;
39486;SDS011;25173;50.430;18.926;2023-12-20T06:03:54;38.90;;;17.88;;
39486;SDS011;25173;50.430;18.926;2023-12-20T06:06:55;40.03;;;20.05;;
39486;SDS011;25173;50.430;18.926;2023-12-20T06:09:55;38.25;;;18.63;;
39486;SDS011;25173;50.430;18.926;2023-12-20T06:12:56;39.58;;;25.60;;
39486;SDS011;25173;50.430;18.926;2023-12-20T06:15:58;21.42;;;15.13;;
39486;SDS011;25173;50.430;18.926;2023-12-20T06:18:59;22.15;;;13.45;;
39486;SDS011;25173;50.430;18.926;2023-12-20T06:21:59;25.95;;;19.10;;
39486;SDS011;25173;50.430;18.926;2023-12-20T06:25:00;23.02;;;16.27;;
39486;SDS011;25173;50.430;18.926;2023-12-20T06:28:00;22.75;;;13.90;;
39486;SDS011;25173;50.430;18.926;2023-12-20T06:31:01;18.42;;;12.07;;
39486;SDS011;25173;50.430;18.926;2023-12-20T06:34:03;27.63;;;16.55;;
39486;SDS011;25173;50.430;18.926;2023-12-20T06:37:03;38.53;;;20.85;;
39486;SDS011;25173;50.430;18.926;2023-12-20T06:40:05;29.45;;;17.48;;
39486;SDS011;25173;50.430;18.926;2023-12-20T06:43:06;24.95;;;15.20;;
39486;SDS011;25173;50.430;18.926;2023-12-20T06:46:07;21.77;;;14.23;;
39486;SDS011;25173;50.430;18.926;2023-12-20T06:49:10;23.45;;;13.15;;
39486;SDS011;25173;50.430;18.926;2023-12-20T06:52:10;23.58;;;14.98;;
39486;SDS011;25173;50.430;18.926;2023-12-20T06:55:11;24.70;;;14.45;;
39486;SDS011;25173;50.430;18.926;2023-12-20T06:58:11;23.70;;;15.13;;
39486;SDS011;25173;50.430;18.926;2023-12-20T07:01:12;20.52;;;15.07;;
39486;SDS011;25173;50.430;18.926;2023-12-20T07:04:14;32.70;;;22.35;;
39486;SDS011;25173;50.430;18.926;2023-12-20T07:07:14;22.98;;;14.23;;
39486;SDS011;25173;50.430;18.926;2023-12-20T07:10:15;39.97;;;25.80;;
39486;SDS011;25173;50.430;18.926;2023-12-20T07:13:16;45.70;;;29.67;;
39486;SDS011;25173;50.430;18.926;2023-12-20T07:16:16;25.95;;;19.50;;
39486;SDS011;25173;50.430;18.926;2023-12-20T07:19:17;16.65;;;10.80;;
39486;SDS011;25173;50.430;18.926;2023-12-20T07:22:17;13.95;;;8.68;;
39486;SDS011;25173;50.430;18.926;2023-12-20T07:25:18;9.75;;;8.10;;
39486;SDS011;25173;50.430;18.926;2023-12-20T07:28:20;12.40;;;9.57;;
39486;SDS011;25173;50.430;18.926;2023-12-20T07:31:20;10.65;;;6.88;;
39486;SDS011;25173;50.430;18.926;2023-12-20T07:34:21;10.25;;;7.18;;
39486;SDS011;25173;50.430;18.926;2023-12-20T07:37:22;9.65;;;7.05;;
39486;SDS011;25173;50.430;18.926;2023-12-20T07:40:22;12.35;;;6.88;;
39486;SDS011;25173;50.430;18.926;2023-12-20T07:43:24;9.35;;;7.45;;
39486;SDS011;25173;50.430;18.926;2023-12-20T07:46:24;16.20;;;8.68;;
39486;SDS011;25173;50.430;18.926;2023-12-20T07:49:25;9.68;;;7.55;;
39486;SDS011;25173;50.430;18.926;2023-12-20T07:52:26;10.60;;;8.00;;
39486;SDS011;25173;50.430;18.926;2023-12-20T07:55:27;13.02;;;8.00;;
39486;SDS011;25173;50.430;18.926;2023-12-20T07:58:27;9.55;;;6.10;;
39486;SDS011;25173;50.430;18.926;2023-12-20T08:01:30;9.73;;;7.07;;
39486;SDS011;25173;50.430;18.926;2023-12-20T08:04:30;8.05;;;6.50;;
39486;SDS011;25173;50.430;18.926;2023-12-20T08:07:31;11.15;;;6.65;;
39486;SDS011;25173;50.430;18.926;2023-12-20T08:10:32;10.38;;;6.25;;
39486;SDS011;25173;50.430;18.926;2023-12-20T08:13:33;9.65;;;7.40;;
39486;SDS011;25173;50.430;18.926;2023-12-20T08:16:33;9.48;;;7.32;;
39486;SDS011;25173;50.430;18.926;2023-12-20T08:19:34;13.40;;;8.27;;
39486;SDS011;25173;50.430;18.926;2023-12-20T08:22:34;9.55;;;7.65;;
39486;SDS011;25173;50.430;18.926;2023-12-20T08:25:35;7.57;;;5.93;;
39486;SDS011;25173;50.430;18.926;2023-12-20T08:28:36;8.88;;;6.88;;
39486;SDS011;25173;50.430;18.926;2023-12-20T08:31:37;8.07;;;7.15;;
39486;SDS011;25173;50.430;18.926;2023-12-20T08:34:37;11.43;;;7.50;;
39486;SDS011;25173;50.430;18.926;2023-12-20T08:37:38;9.73;;;6.65;;
39486;SDS011;25173;50.430;18.926;2023-12-20T08:40:39;11.63;;;8.32;;
39486;SDS011;25173;50.430;18.926;2023-12-20T08:43:39;9.15;;;7.60;;
39486;SDS011;25173;50.430;18.926;2023-12-20T08:46:42;9.05;;;7.03;;
39486;SDS011;25173;50.430;18.926;2023-12-20T08:49:43;10.38;;;7.13;;
39486;SDS011;25173;50.430;18.926;2023-12-20T08:52:44;7.82;;;6.03;;
39486;SDS011;25173;50.430;18.926;2023-12-20T08:55:45;12.85;;;6.65;;
39486;SDS011;25173;50.430;18.926;2023-12-20T08:58:46;7.60;;;6.05;;
39486;SDS011;25173;50.430;18.926;2023-12-20T09:01:47;7.43;;;5.63;;
39486;SDS011;25173;50.430;18.926;2023-12-20T09:04:52;7.85;;;5.88;;
39486;SDS011;25173;50.430;18.926;2023-12-20T09:07:52;9.63;;;7.57;;
39486;SDS011;25173;50.430;18.926;2023-12-20T09:10:56;10.88;;;7.22;;
39486;SDS011;25173;50.430;18.926;2023-12-20T09:13:56;8.05;;;6.95;;
39486;SDS011;25173;50.430;18.926;2023-12-20T09:16:57;8.85;;;6.03;;
39486;SDS011;25173;50.430;18.926;2023-12-20T09:19:58;9.57;;;7.25;;
39486;SDS011;25173;50.430;18.926;2023-12-20T09:23:00;10.52;;;7.63;;
39486;SDS011;25173;50.430;18.926;2023-12-20T09:26:00;9.27;;;7.70;;
39486;SDS011;25173;50.430;18.926;2023-12-20T09:29:01;13.13;;;8.45;;
39486;SDS011;25173;50.430;18.926;2023-12-20T09:32:02;11.63;;;8.40;;
39486;SDS011;25173;50.430;18.926;2023-12-20T09:35:03;10.20;;;7.90;;
39486;SDS011;25173;50.430;18.926;2023-12-20T09:38:05;11.35;;;7.90;;
39486;SDS011;25173;50.430;18.926;2023-12-20T09:41:06;10.77;;;7.82;;
39486;SDS011;25173;50.430;18.926;2023-12-20T09:44:07;11.85;;;7.40;;
39486;SDS011;25173;50.430;18.926;2023-12-20T09:47:10;8.82;;;7.13;;
39486;SDS011;25173;50.430;18.926;2023-12-20T09:50:11;8.77;;;6.40;;
39486;SDS011;25173;50.430;18.926;2023-12-20T09:53:15;7.97;;;6.50;;
39486;SDS011;25173;50.430;18.926;2023-12-20T09:56:16;8.13;;;6.30;;
39486;SDS011;25173;50.430;18.926;2023-12-20T09:59:17;7.97;;;6.00;;
39486;SDS011;25173;50.430;18.926;2023-12-20T10:02:18;8.15;;;6.20;;
39486;SDS011;25173;50.430;18.926;2023-12-20T10:05:23;8.15;;;6.70;;
39486;SDS011;25173;50.430;18.926;2023-12-20T10:08:30;7.43;;;6.65;;
39486;SDS011;25173;50.430;18.926;2023-12-20T10:11:32;8.25;;;6.18;;
39486;SDS011;25173;50.430;18.926;2023-12-20T10:14:35;7.20;;;6.47;;
39486;SDS011;25173;50.430;18.926;2023-12-20T10:17:36;9.48;;;7.40;;
39486;SDS011;25173;50.430;18.926;2023-12-20T10:20:37;8.43;;;6.68;;
39486;SDS011;25173;50.430;18.926;2023-12-20T10:23:37;8.52;;;6.65;;
39486;SDS011;25173;50.430;18.926;2023-12-20T10:26:40;11.38;;;7.72;;
39486;SDS011;25173;50.430;18.926;2023-12-20T10:29:40;8.73;;;7.40;;
39486;SDS011;25173;50.430;18.926;2023-12-20T10:32:41;11.07;;;8.10;;
39486;SDS011;25173;50.430;18.926;2023-12-20T10:35:42;10.90;;;7.82;;
39486;SDS011;25173;50.430;18.926;2023-12-20T10:38:42;10.20;;;7.88;;
39486;SDS011;25173;50.430;18.926;2023-12-20T10:41:44;9.80;;;7.22;;
39486;SDS011;25173;50.430;18.926;2023-12-20T10:44:46;9.50;;;7.07;;
39486;SDS011;25173;50.430;18.926;2023-12-20T10:47:47;10.35;;;8.00;;
39486;SDS011;25173;50.430;18.926;2023-12-20T10:50:50;10.80;;;7.85;;
39486;SDS011;25173;50.430;18.926;2023-12-20T10:53:52;10.02;;;8.00;;
39486;SDS011;25173;50.430;18.926;2023-12-20T10:56:53;9.13;;;6.93;;
39486;SDS011;25173;50.430;18.926;2023-12-20T10:59:55;10.30;;;7.40;;
39486;SDS011;25173;50.430;18.926;2023-12-20T11:03:00;10.23;;;8.18;;
39486;SDS011;25173;50.430;18.926;2023-12-20T11:06:04;8.98;;;7.35;;
39486;SDS011;25173;50.430;18.926;2023-12-20T11:12:39;10.07;;;7.72;;
39486;SDS011;25173;50.430;18.926;2023-12-20T11:15:47;9.55;;;7.47;;
39486;SDS011;25173;50.430;18.926;2023-12-20T11:18:50;10.75;;;8.15;;
39486;SDS011;25173;50.430;18.926;2023-12-20T11:21:51;11.65;;;8.52;;
39486;SDS011;25173;50.430;18.926;2023-12-20T11:24:52;12.43;;;9.25;;
39486;SDS011;25173;50.430;18.926;2023-12-20T11:28:11;11.95;;;8.30;;
39486;SDS011;25173;50.430;18.926;2023-12-20T11:31:13;10.90;;;8.27;;
39486;SDS011;25173;50.430;18.926;2023-12-20T11:34:14;9.32;;;7.38;;
39486;SDS011;25173;50.430;18.926;2023-12-20T11:37:21;11.75;;;7.50;;
39486;SDS011;25173;50.430;18.926;2023-12-20T11:40:49;8.88;;;7.50;;
39486;SDS011;25173;50.430;18.926;2023-12-20T11:43:53;11.77;;;8.02;;
39486;SDS011;25173;50.430;18.926;2023-12-20T11:46:55;10.80;;;8.05;;
39486;SDS011;25173;50.430;18.926;2023-12-20T11:49:55;9.55;;;8.05;;
39486;SDS011;25173;50.430;18.926;2023-12-20T11:52:56;9.90;;;7.40;;
39486;SDS011;25173;50.430;18.926;2023-12-20T11:55:57;9.75;;;7.00;;
39486;SDS011;25173;50.430;18.926;2023-12-20T11:58:58;10.18;;;6.85;;
39486;SDS011;25173;50.430;18.926;2023-12-20T12:01:59;7.75;;;6.13;;
39486;SDS011;25173;50.430;18.926;2023-12-20T12:05:01;11.90;;;8.43;;
39486;SDS011;25173;50.430;18.926;2023-12-20T12:08:02;12.38;;;8.55;;
39486;SDS011;25173;50.430;18.926;2023-12-20T12:11:03;16.08;;;8.35;;
39486;SDS011;25173;50.430;18.926;2023-12-20T12:14:04;61.50;;;22.83;;
39486;SDS011;25173;50.430;18.926;2023-12-20T12:17:04;83.60;;;30.55;;
39486;SDS011;25173;50.430;18.926;2023-12-20T12:20:05;58.50;;;24.95;;
39486;SDS011;25173;50.430;18.926;2023-12-20T12:23:07;86.53;;;38.55;;
39486;SDS011;25173;50.430;18.926;2023-12-20T12:26:07;83.80;;;41.92;;
39486;SDS011;25173;50.430;18.926;2023-12-20T12:29:09;129.68;;;75.25;;
39486;SDS011;25173;50.430;18.926;2023-12-20T12:32:10;88.53;;;52.15;;
39486;SDS011;25173;50.430;18.926;2023-12-20T12:35:10;60.55;;;40.00;;
39486;SDS011;25173;50.430;18.926;2023-12-20T12:38:11;30.42;;;22.08;;
39486;SDS011;25173;50.430;18.926;2023-12-20T12:41:12;20.52;;;14.40;;
39486;SDS011;25173;50.430;18.926;2023-12-20T12:44:13;15.52;;;9.63;;
39486;SDS011;25173;50.430;18.926;2023-12-20T12:47:14;13.93;;;7.95;;
39486;SDS011;25173;50.430;18.926;2023-12-20T12:50:14;13.73;;;8.02;;
39486;SDS011;25173;50.430;18.926;2023-12-20T12:53:16;11.10;;;7.25;;
39486;SDS011;25173;50.430;18.926;2023-12-20T12:56:16;12.80;;;8.23;;
39486;SDS011;25173;50.430;18.926;2023-12-20T12:59:17;12.57;;;7.25;;
39486;SDS011;25173;50.430;18.926;2023-12-20T13:02:18;15.82;;;8.77;;
39486;SDS011;25173;50.430;18.926;2023-12-20T13:05:18;10.50;;;6.68;;
39486;SDS011;25173;50.430;18.926;2023-12-20T13:08:19;8.38;;;5.63;;
39486;SDS011;25173;50.430;18.926;2023-12-20T13:11:20;9.88;;;6.38;;
39486;SDS011;25173;50.430;18.926;2023-12-20T13:14:20;13.45;;;7.30;;
39486;SDS011;25173;50.430;18.926;2023-12-20T13:17:22;9.10;;;6.13;;
39486;SDS011;25173;50.430;18.926;2023-12-20T13:20:22;11.88;;;7.15;;
39486;SDS011;25173;50.430;18.926;2023-12-20T13:23:23;13.00;;;7.28;;
39486;SDS011;25173;50.430;18.926;2023-12-20T13:26:23;11.45;;;7.75;;
39486;SDS011;25173;50.430;18.926;2023-12-20T13:29:24;14.85;;;8.27;;
39486;SDS011;25173;50.430;18.926;2023-12-20T13:32:27;14.90;;;9.70;;
39486;SDS011;25173;50.430;18.926;2023-12-20T13:35:27;12.77;;;7.65;;
39486;SDS011;25173;50.430;18.926;2023-12-20T13:38:28;17.45;;;10.88;;
39486;SDS011;25173;50.430;18.926;2023-12-20T13:41:29;10.70;;;7.93;;
39486;SDS011;25173;50.430;18.926;2023-12-20T13:44:30;17.08;;;9.95;;
39486;SDS011;25173;50.430;18.926;2023-12-20T13:47:31;18.25;;;10.50;;
39486;SDS011;25173;50.430;18.926;2023-12-20T13:50:32;19.40;;;13.18;;
39486;SDS011;25173;50.430;18.926;2023-12-20T13:53:32;23.73;;;17.92;;
39486;SDS011;25173;50.430;18.926;2023-12-20T13:56:34;19.05;;;10.60;;
39486;SDS011;25173;50.430;18.926;2023-12-20T13:59:34;14.20;;;9.07;;
39486;SDS011;25173;50.430;18.926;2023-12-20T14:02:35;14.40;;;9.55;;
39486;SDS011;25173;50.430;18.926;2023-12-20T14:05:35;17.98;;;11.85;;
39486;SDS011;25173;50.430;18.926;2023-12-20T14:08:36;18.35;;;12.32;;
39486;SDS011;25173;50.430;18.926;2023-12-20T14:11:37;14.43;;;9.98;;
39486;SDS011;25173;50.430;18.926;2023-12-20T14:14:41;14.02;;;9.25;;
39486;SDS011;25173;50.430;18.926;2023-12-20T14:17:41;16.90;;;9.18;;
39486;SDS011;25173;50.430;18.926;2023-12-20T14:20:42;11.45;;;8.25;;
39486;SDS011;25173;50.430;18.926;2023-12-20T14:23:43;29.33;;;14.25;;
39486;SDS011;25173;50.430;18.926;2023-12-20T14:26:43;13.23;;;10.05;;
39486;SDS011;25173;50.430;18.926;2023-12-20T14:29:44;35.42;;;16.48;;
39486;SDS011;25173;50.430;18.926;2023-12-20T14:32:44;17.77;;;12.32;;
39486;SDS011;25173;50.430;18.926;2023-12-20T14:35:46;25.63;;;17.77;;
39486;SDS011;25173;50.430;18.926;2023-12-20T14:38:47;29.42;;;17.70;;
39486;SDS011;25173;50.430;18.926;2023-12-20T14:41:49;19.65;;;13.55;;
39486;SDS011;25173;50.430;18.926;2023-12-20T14:44:50;17.48;;;10.32;;
39486;SDS011;25173;50.430;18.926;2023-12-20T14:47:52;19.58;;;10.95;;
39486;SDS011;25173;50.430;18.926;2023-12-20T14:50:53;25.20;;;12.98;;
39486;SDS011;25173;50.430;18.926;2023-12-20T14:53:54;87.60;;;35.25;;
39486;SDS011;25173;50.430;18.926;2023-12-20T14:56:54;183.75;;;70.82;;
39486;SDS011;25173;50.430;18.926;2023-12-20T14:59:56;159.90;;;62.95;;
39486;SDS011;25173;50.430;18.926;2023-12-20T15:02:57;162.20;;;66.45;;
39486;SDS011;25173;50.430;18.926;2023-12-20T15:05:57;147.90;;;61.60;;
39486;SDS011;25173;50.430;18.926;2023-12-20T15:08:59;129.15;;;53.75;;
39486;SDS011;25173;50.430;18.926;2023-12-20T15:12:00;91.22;;;40.33;;
39486;SDS011;25173;50.430;18.926;2023-12-20T15:15:01;82.38;;;39.38;;
39486;SDS011;25173;50.430;18.926;2023-12-20T15:18:01;86.40;;;38.95;;
39486;SDS011;25173;50.430;18.926;2023-12-20T15:21:05;76.07;;;38.28;;
39486;SDS011;25173;50.430;18.926;2023-12-20T15:24:06;58.38;;;33.75;;
39486;SDS011;25173;50.430;18.926;2023-12-20T15:27:13;59.63;;;33.08;;
39486;SDS011;25173;50.430;18.926;2023-12-20T15:30:14;29.67;;;19.38;;
39486;SDS011;25173;50.430;18.926;2023-12-20T15:33:15;37.58;;;23.70;;
39486;SDS011;25173;50.430;18.926;2023-12-20T15:36:15;24.88;;;15.68;;
39486;SDS011;25173;50.430;18.926;2023-12-20T15:39:16;23.75;;;14.65;;
39486;SDS011;25173;50.430;18.926;2023-12-20T15:42:16;24.35;;;15.93;;
39486;SDS011;25173;50.430;18.926;2023-12-20T15:45:17;14.85;;;9.18;;
39486;SDS011;25173;50.430;18.926;2023-12-20T15:48:18;14.50;;;10.20;;
39486;SDS011;25173;50.430;18.926;2023-12-20T15:51:21;13.52;;;8.77;;
39486;SDS011;25173;50.430;18.926;2023-12-20T15:54:22;13.63;;;8.00;;
39486;SDS011;25173;50.430;18.926;2023-12-20T15:57:23;11.75;;;7.88;;
39486;SDS011;25173;50.430;18.926;2023-12-20T16:00:27;12.57;;;7.20;;
39486;SDS011;25173;50.430;18.926;2023-12-20T16:03:30;11.38;;;7.25;;
39486;SDS011;25173;50.430;18.926;2023-12-20T16:06:31;11.15;;;7.50;;
39486;SDS011;25173;50.430;18.926;2023-12-20T16:09:31;10.35;;;6.82;;
39486;SDS011;25173;50.430;18.926;2023-12-20T16:12:32;16.10;;;9.65;;
39486;SDS011;25173;50.430;18.926;2023-12-20T16:15:33;13.60;;;8.35;;
39486;SDS011;25173;50.430;18.926;2023-12-20T16:18:33;13.15;;;8.57;;
39486;SDS011;25173;50.430;18.926;2023-12-20T16:21:35;12.27;;;8.07;;
39486;SDS011;25173;50.430;18.926;2023-12-20T16:24:36;14.88;;;8.88;;
39486;SDS011;25173;50.430;18.926;2023-12-20T16:27:37;13.73;;;8.25;;
39486;SDS011;25173;50.430;18.926;2023-12-20T16:30:38;14.15;;;8.07;;
39486;SDS011;25173;50.430;18.926;2023-12-20T16:33:38;14.60;;;9.38;;
39486;SDS011;25173;50.430;18.926;2023-12-20T16:39:50;22.60;;;14.20;;
39486;SDS011;25173;50.430;18.926;2023-12-20T16:42:51;27.70;;;14.18;;
39486;SDS011;25173;50.430;18.926;2023-12-20T16:45:52;42.25;;;20.33;;
39486;SDS011;25173;50.430;18.926;2023-12-20T16:48:53;123.70;;;66.75;;
39486;SDS011;25173;50.430;18.926;2023-12-20T16:51:53;88.28;;;45.95;;
39486;SDS011;25173;50.430;18.926;2023-12-20T16:54:54;56.97;;;23.48;;
39486;SDS011;25173;50.430;18.926;2023-12-20T16:57:55;65.57;;;27.08;;
39486;SDS011;25173;50.430;18.926;2023-12-20T17:00:56;87.10;;;32.90;;
39486;SDS011;25173;50.430;18.926;2023-12-20T17:03:57;154.50;;;52.22;;
39486;SDS011;25173;50.430;18.926;2023-12-20T17:06:58;115.65;;;41.53;;
39486;SDS011;25173;50.430;18.926;2023-12-20T17:09:59;109.80;;;40.30;;
39486;SDS011;25173;50.430;18.926;2023-12-20T17:12:59;76.75;;;31.58;;
39486;SDS011;25173;50.430;18.926;2023-12-20T17:16:00;140.50;;;54.55;;
39486;SDS011;25173;50.430;18.926;2023-12-20T17:19:01;102.88;;;43.55;;
39486;SDS011;25173;50.430;18.926;2023-12-20T17:22:01;76.35;;;35.78;;
39486;SDS011;25173;50.430;18.926;2023-12-20T17:25:03;98.40;;;50.53;;
39486;SDS011;25173;50.430;18.926;2023-12-20T17:28:05;74.47;;;31.73;;
39486;SDS011;25173;50.430;18.926;2023-12-20T17:31:06;79.20;;;38.67;;
39486;SDS011;25173;50.430;18.926;2023-12-20T17:34:07;65.72;;;33.50;;
39486;SDS011;25173;50.430;18.926;2023-12-20T17:37:11;48.63;;;26.75;;
39486;SDS011;25173;50.430;18.926;2023-12-20T17:40:11;69.50;;;33.33;;